Time;durP1;ratioP1;P1;durP2;ratioP2;P2;SDS_P1;SDS_P2;PMS_P1;PMS_P2;Temp;Humidity;BMP_temperature;BMP_pressure;BME280_temperature;BME280_humidity;BME280_pressure;Samples;Min_cycle;Max_cycle;Signal;HPM_P1;HPM_P2
2021/11/17 02:26:33;;;;;;;28.52;11.73;;;7.60;97.00;;;;;;4993698;28;20036;-76
2021/11/17 02:29:14;;;;;;;29.38;10.50;;;7.60;97.00;;;;;;4992119;28;20023;-75
2021/11/17 02:31:58;;;;;;;32.80;13.50;;;7.60;97.00;;;;;;4992117;28;20022;-76
2021/11/17 02:35:01;;;;;;;27.92;12.48;;;7.60;97.00;;;;;;4977359;28;20026;-75
2021/11/17 02:37:56;;;;;;;31.02;11.98;;;7.60;97.00;;;;;;4993947;28;20076;-75
2021/11/17 02:40:58;;;;;;;29.83;11.20;;;7.70;97.00;;;;;;4992594;28;20113;-75
2021/11/17 02:43:33;;;;;;;28.75;11.48;;;7.70;97.00;;;;;;4992438;28;20021;-75
2021/11/17 02:45:59;;;;;;;34.47;12.63;;;7.70;96.90;;;;;;4976090;28;20040;-76
2021/11/17 02:49:04;;;;;;;34.53;11.93;;;7.70;96.90;;;;;;4992352;28;20018;-75
2021/11/17 02:52:10;;;;;;;28.73;11.27;;;7.70;97.00;;;;;;4991141;28;20030;-76
2021/11/17 02:54:49;;;;;;;32.20;10.32;;;7.70;97.00;;;;;;4989677;28;20039;-75
2021/11/17 02:57:14;;;;;;;34.95;12.18;;;7.70;96.90;;;;;;4976225;28;20026;-76
2021/11/17 03:00:22;;;;;;;31.42;11.43;;;7.70;96.90;;;;;;4991430;28;20022;-76
2021/11/17 03:02:56;;;;;;;30.65;11.45;;;7.70;97.00;;;;;;4992559;28;20470;-75
2021/11/17 03:05:27;;;;;;;33.70;12.02;;;7.60;97.00;;;;;;4992199;28;20128;-75
2021/11/17 03:07:53;;;;;;;;;;;7.70;97.10;;;;;;4993110;28;20022;-75
2021/11/17 03:10:35;;;;;;;30.35;12.00;;;7.60;97.00;;;;;;4993030;28;20345;-75
2021/11/17 03:13:29;;;;;;;34.63;11.60;;;7.60;97.00;;;;;;4975393;28;20052;-75
2021/11/17 03:16:23;;;;;;;28.92;11.18;;;7.60;97.20;;;;;;4991276;28;20370;-76
2021/11/17 03:19:01;;;;;;;31.10;11.27;;;7.60;97.10;;;;;;4976838;28;20014;-76
2021/11/17 03:22:01;;;;;;;32.47;11.57;;;7.70;97.10;;;;;;4975747;28;20054;-75
2021/11/17 03:24:33;;;;;;;34.03;11.07;;;7.70;97.10;;;;;;4992132;28;20026;-75
2021/11/17 03:27:29;;;;;;;29.65;11.68;;;7.70;97.10;;;;;;4991522;28;20023;-76
2021/11/17 03:30:10;;;;;;;33.47;11.95;;;7.70;97.10;;;;;;4991287;28;20072;-75
2021/11/17 03:32:42;;;;;;;29.95;11.77;;;7.70;97.10;;;;;;4991786;28;20019;-75
2021/11/17 03:35:29;;;;;;;30.52;10.93;;;7.70;97.10;;;;;;4995054;28;20018;-75
2021/11/17 03:38:11;;;;;;;25.90;9.63;;;7.70;97.10;;;;;;4995153;28;20022;-75
2021/11/17 03:40:49;;;;;;;38.08;12.43;;;7.80;97.10;;;;;;4996155;28;20029;-75
2021/11/17 03:43:30;;;;;;;26.88;11.32;;;7.80;97.00;;;;;;4996765;28;20041;-75
2021/11/17 03:46:10;;;;;;;30.15;11.10;;;7.80;97.00;;;;;;4996258;28;20030;-75
2021/11/17 03:48:36;;;;;;;28.77;11.35;;;7.80;97.10;;;;;;4996956;28;20021;-76
2021/11/17 03:51:29;;;;;;;29.60;12.05;;;7.70;97.00;;;;;;4996162;28;20383;-76
2021/11/17 03:54:14;;;;;;;24.48;10.23;;;7.80;97.10;;;;;;4978951;28;20432;-76
2021/11/17 03:57:16;;;;;;;32.05;11.32;;;7.80;97.00;;;;;;4980320;28;20030;-75
2021/11/17 03:59:45;;;;;;;27.73;10.13;;;7.80;97.00;;;;;;4981188;28;20455;-76
2021/11/17 04:02:16;;;;;;;29.13;12.50;;;7.80;97.00;;;;;;4995429;28;20475;-76
2021/11/17 04:04:41;;;;;;;;;;;7.80;96.90;;;;;;4997106;28;20125;-77
2021/11/17 04:07:30;;;;;;;23.27;9.88;;;7.80;96.90;;;;;;4996502;28;19940;-75
2021/11/17 04:10:30;;;;;;;33.67;14.13;;;7.80;96.80;;;;;;4988247;28;20467;-75
2021/11/17 04:13:16;;;;;;;28.85;11.10;;;7.80;96.80;;;;;;4978586;28;20023;-75
2021/11/17 04:16:04;;;;;;;29.40;11.15;;;7.80;96.90;;;;;;4996471;28;20022;-75
2021/11/17 04:18:56;;;;;;;25.85;11.00;;;7.80;96.90;;;;;;4963849;28;20018;-76
2021/11/17 04:21:34;;;;;;;28.42;9.85;;;7.80;97.00;;;;;;4963898;28;20073;-75
2021/11/17 04:24:45;;;;;;;19.65;8.45;;;7.90;97.00;;;;;;4995465;28;20546;-75
2021/11/17 04:27:35;;;;;;;33.95;11.60;;;7.90;96.90;;;;;;4977798;28;20034;-76
2021/11/17 04:30:32;;;;;;;26.83;9.05;;;7.90;96.90;;;;;;4978373;28;20414;-76
2021/11/17 04:33:22;;;;;;;31.90;11.35;;;7.90;96.90;;;;;;4994400;28;20113;-76
2021/11/17 04:36:25;;;;;;;25.02;11.30;;;7.90;96.80;;;;;;4995487;28;20027;-76
2021/11/17 04:39:06;;;;;;;25.30;10.50;;;7.90;96.80;;;;;;4995601;28;20021;-75
2021/11/17 04:41:57;;;;;;;26.45;9.68;;;7.90;96.80;;;;;;4994888;28;20022;-75
2021/11/17 04:44:41;;;;;;;26.05;10.70;;;7.80;96.90;;;;;;4980832;28;20030;-74
2021/11/17 04:47:28;;;;;;;28.80;11.55;;;7.80;97.00;;;;;;4976569;28;20026;-75
2021/11/17 04:50:15;;;;;;;23.92;10.20;;;7.80;97.00;;;;;;4977658;28;20050;-76
2021/11/17 04:53:02;;;;;;;22.92;10.32;;;7.80;97.10;;;;;;4994112;28;20125;-75
2021/11/17 04:55:55;;;;;;;23.77;10.77;;;7.80;97.00;;;;;;4995573;28;20030;-75
2021/11/17 04:58:45;;;;;;;34.67;12.20;;;7.80;97.00;;;;;;4995031;28;20031;-76
2021/11/17 05:01:17;;;;;;;30.48;11.18;;;7.80;97.00;;;;;;4993308;28;20109;-76
2021/11/17 05:03:52;;;;;;;21.08;9.05;;;7.80;97.00;;;;;;4994070;28;20461;-77
2021/11/17 05:06:35;;;;;;;24.23;8.95;;;7.80;97.00;;;;;;4995539;28;20045;-76
2021/11/17 05:09:31;;;;;;;25.85;9.40;;;7.80;96.90;;;;;;4994891;28;20035;-76
2021/11/17 05:12:02;;;;;;;22.88;9.85;;;7.90;96.90;;;;;;4977650;28;20026;-76
2021/11/17 05:14:41;;;;;;;28.02;10.50;;;7.80;96.90;;;;;;4994070;28;20386;-76
2021/11/17 05:17:25;;;;;;;23.67;10.30;;;7.80;96.90;;;;;;4993696;28;20042;-76
2021/11/17 05:20:09;;;;;;;33.58;11.55;;;7.80;96.90;;;;;;4993511;28;20442;-76
2021/11/17 05:22:47;;;;;;;34.00;12.05;;;7.80;97.00;;;;;;4979018;28;20045;-76
2021/11/17 05:25:50;;;;;;;27.23;10.43;;;7.80;97.00;;;;;;4993521;28;20034;-77
2021/11/17 05:28:22;;;;;;;27.40;10.73;;;7.70;97.00;;;;;;4980782;28;20033;-76
2021/11/17 05:31:03;;;;;;;29.85;11.02;;;7.70;97.10;;;;;;4977786;28;20030;-76
2021/11/17 05:33:43;;;;;;;29.80;10.65;;;7.70;97.10;;;;;;4976738;28;20022;-79
2021/11/17 05:36:30;;;;;;;26.85;10.82;;;7.60;97.10;;;;;;4992379;28;20038;-77
2021/11/17 05:38:55;;;;;;;26.05;11.02;;;7.70;97.20;;;;;;4991857;28;20022;-79
2021/11/17 05:41:49;;;;;;;26.95;11.13;;;7.70;97.20;;;;;;4993706;28;20049;-80
2021/11/17 05:44:27;;;;;;;27.50;9.40;;;7.70;97.20;;;;;;4991941;28;20022;-78
2021/11/17 05:47:05;;;;;;;32.70;11.80;;;7.70;97.20;;;;;;4991091;28;20034;-79
2021/11/17 05:49:41;;;;;;;26.35;11.20;;;7.70;97.20;;;;;;4975963;28;20026;-80
2021/11/17 05:52:07;;;;;;;25.05;10.00;;;7.70;97.20;;;;;;4975986;28;20033;-75
2021/11/17 05:54:59;;;;;;;27.13;10.15;;;7.70;97.20;;;;;;4994340;28;20030;-75
2021/11/17 05:58:06;;;;;;;28.52;10.73;;;7.70;97.20;;;;;;4993885;28;20021;-75
2021/11/17 06:00:54;;;;;;;28.42;10.52;;;7.80;97.20;;;;;;4992896;28;20046;-75
2021/11/17 06:03:27;;;;;;;27.50;10.30;;;7.80;97.10;;;;;;4993731;28;20050;-75
2021/11/17 06:05:53;;;;;;;22.30;8.05;;;7.90;97.10;;;;;;5025174;28;20508;-75
2021/11/17 06:08:18;;;;;;;21.08;9.05;;;7.90;97.10;;;;;;5025840;28;20502;-74
2021/11/17 06:10:50;;;;;;;22.50;9.45;;;7.90;97.10;;;;;;5025680;28;20466;-75
2021/11/17 06:13:17;;;;;;;28.90;10.82;;;7.90;97.10;;;;;;4993644;28;20038;-75
2021/11/17 06:15:45;;;;;;;22.05;8.65;;;8.00;97.10;;;;;;4994173;28;20034;-76
2021/11/17 06:18:15;;;;;;;31.33;10.93;;;8.00;97.10;;;;;;4992294;28;20014;-76
2021/11/17 06:20:41;;;;;;;28.02;10.75;;;7.90;97.10;;;;;;4992745;28;20467;-76
2021/11/17 06:23:12;;;;;;;25.45;9.55;;;7.90;97.10;;;;;;4992203;28;20022;-76
2021/11/17 06:25:41;;;;;;;25.38;9.27;;;7.90;97.20;;;;;;4993750;28;20030;-75
2021/11/17 06:28:07;;;;;;;26.38;9.80;;;7.90;97.20;;;;;;4992074;28;20382;-76
2021/11/17 06:30:38;;;;;;;22.20;8.07;;;7.90;97.20;;;;;;4993366;28;20046;-76
2021/11/17 06:33:06;;;;;;;23.48;9.57;;;8.00;97.20;;;;;;4991841;28;20030;-76
2021/11/17 06:35:35;;;;;;;23.30;8.00;;;8.00;97.20;;;;;;4992606;28;20035;-76
2021/11/17 06:38:01;;;;;;;20.83;7.70;;;8.00;97.10;;;;;;4991753;28;20099;-76
2021/11/17 06:40:29;;;;;;;35.97;10.57;;;8.00;97.10;;;;;;5025195;28;20023;-76
2021/11/17 06:42:57;;;;;;;26.83;9.95;;;8.00;97.10;;;;;;4993208;28;20031;-76
2021/11/17 06:45:43;;;;;;;25.92;9.50;;;8.00;97.10;;;;;;4993574;28;20027;-76
2021/11/17 06:48:10;;;;;;;29.13;10.20;;;8.00;97.10;;;;;;4992934;28;20035;-76
2021/11/17 06:50:39;;;;;;;24.45;8.60;;;8.00;97.10;;;;;;4993746;28;20489;-76
2021/11/17 06:53:06;;;;;;;26.27;9.23;;;8.10;97.40;;;;;;4992756;28;20034;-76
2021/11/17 06:55:32;;;;;;;33.15;10.18;;;8.10;97.10;;;;;;4992221;28;20101;-77
2021/11/17 06:57:58;;;;;;;25.83;10.70;;;8.10;97.00;;;;;;4991815;28;20034;-76
2021/11/17 07:00:26;;;;;;;30.27;10.05;;;8.10;97.00;;;;;;4993469;28;20026;-74
2021/11/17 07:02:52;;;;;;;28.15;10.38;;;8.10;97.00;;;;;;4993049;28;20026;-76
2021/11/17 07:05:21;;;;;;;30.38;10.75;;;8.10;97.10;;;;;;4991530;28;20038;-77
2021/11/17 07:07:48;;;;;;;24.00;8.77;;;8.10;97.10;;;;;;4993301;28;20022;-77
2021/11/17 07:10:16;;;;;;;24.58;10.57;;;8.20;97.10;;;;;;4991797;28;20518;-77
2021/11/17 07:12:42;;;;;;;29.23;11.57;;;8.10;97.10;;;;;;4991878;28;20113;-76
2021/11/17 07:15:10;;;;;;;27.50;9.60;;;8.10;97.00;;;;;;4991490;28;20117;-76
2021/11/17 07:17:36;;;;;;;25.67;10.05;;;8.00;97.10;;;;;;4993134;28;20018;-75
2021/11/17 07:20:03;;;;;;;27.83;10.15;;;8.00;97.20;;;;;;4991318;28;20490;-75
2021/11/17 07:22:29;;;;;;;34.90;11.07;;;8.00;97.20;;;;;;4991894;28;20065;-75
2021/11/17 07:24:55;;;;;;;29.90;10.32;;;8.00;97.20;;;;;;4991666;28;20038;-75
2021/11/17 07:27:23;;;;;;;31.70;10.15;;;8.00;97.20;;;;;;4992549;28;20081;-75
2021/11/17 07:29:52;;;;;;;26.77;11.20;;;8.00;97.20;;;;;;4991651;28;20048;-75
2021/11/17 07:32:19;;;;;;;26.77;10.48;;;8.00;97.20;;;;;;4992579;28;20026;-75
2021/11/17 07:34:44;;;;;;;26.98;10.00;;;8.00;97.20;;;;;;4991484;28;20027;-74
2021/11/17 07:37:10;;;;;;;28.15;11.30;;;8.10;97.20;;;;;;4992393;28;20027;-75
2021/11/17 07:39:36;;;;;;;29.02;9.63;;;8.10;97.20;;;;;;4992553;28;20081;-75
2021/11/17 07:42:02;;;;;;;25.05;9.52;;;8.10;97.20;;;;;;4991261;28;20459;-76
2021/11/17 07:44:27;;;;;;;35.88;12.07;;;8.10;97.20;;;;;;4992763;28;20023;-76
2021/11/17 07:46:57;;;;;;;31.50;11.13;;;8.10;97.20;;;;;;4991618;28;20023;-75
2021/11/17 07:49:23;;;;;;;29.70;11.43;;;8.10;97.20;;;;;;4991040;28;20526;-75
2021/11/17 07:51:49;;;;;;;24.63;9.38;;;8.20;97.20;;;;;;4991504;28;20378;-75
2021/11/17 07:54:17;;;;;;;31.35;11.30;;;8.20;97.20;;;;;;4990836;28;20038;-76
2021/11/17 07:56:43;;;;;;;28.52;11.18;;;8.30;97.20;;;;;;5023965;28;20068;-74
2021/11/17 07:59:13;;;;;;;29.00;10.63;;;8.30;97.10;;;;;;4991860;28;20376;-76
2021/11/17 08:01:39;;;;;;;33.17;11.93;;;8.30;97.20;;;;;;4992894;28;20473;-76
2021/11/17 08:04:05;;;;;;;32.10;11.77;;;8.20;97.10;;;;;;4990442;28;20039;-76
2021/11/17 08:06:31;;;;;;;27.27;11.07;;;8.30;97.20;;;;;;4991122;28;20527;-75
2021/11/17 08:08:57;;;;;;;24.85;10.05;;;8.30;97.20;;;;;;4991283;28;20022;-75
2021/11/17 08:11:24;;;;;;;27.70;11.13;;;8.30;97.20;;;;;;4992146;28;20058;-76
2021/11/17 08:13:50;;;;;;;33.25;13.45;;;8.30;97.20;;;;;;4992763;28;20018;-75
2021/11/17 08:16:17;;;;;;;36.72;11.68;;;8.20;97.20;;;;;;4992032;28;20040;-75
2021/11/17 08:18:43;;;;;;;28.70;10.30;;;8.30;97.30;;;;;;4991006;28;20034;-75
2021/11/17 08:21:11;;;;;;;27.55;10.77;;;8.30;97.30;;;;;;4992640;28;20026;-75
2021/11/17 08:23:38;;;;;;;29.52;9.88;;;8.40;97.20;;;;;;4994854;28;20023;-75
2021/11/17 08:26:05;;;;;;;36.60;12.60;;;8.50;97.10;;;;;;4994233;28;20030;-75
2021/11/17 08:28:30;;;;;;;32.95;11.23;;;8.50;97.00;;;;;;4996187;28;20053;-75
2021/11/17 08:30:56;;;;;;;30.42;10.52;;;8.50;97.10;;;;;;4996021;28;20410;-75
2021/11/17 08:33:22;;;;;;;38.53;11.80;;;8.50;97.10;;;;;;4994082;28;20023;-75
2021/11/17 08:35:48;;;;;;;31.25;11.60;;;8.50;97.10;;;;;;4994647;28;20176;-75
2021/11/17 08:38:21;;;;;;;26.55;9.98;;;8.50;97.10;;;;;;4995614;28;20022;-76
2021/11/17 08:40:51;;;;;;;31.90;10.55;;;8.50;97.10;;;;;;4995987;28;20027;-75
2021/11/17 08:43:18;;;;;;;32.65;11.45;;;8.50;97.10;;;;;;4993963;28;20098;-75
2021/11/17 08:45:44;;;;;;;39.17;12.68;;;8.60;97.10;;;;;;4994466;28;20041;-75
2021/11/17 08:48:11;;;;;;;35.53;11.88;;;8.60;97.10;;;;;;4995044;28;20026;-75
2021/11/17 08:50:37;;;;;;;39.58;13.52;;;8.60;97.10;;;;;;4995808;28;20084;-75
2021/11/17 08:53:06;;;;;;;39.85;11.63;;;8.60;97.10;;;;;;4993983;28;20033;-75
2021/11/17 08:55:33;;;;;;;42.42;14.50;;;8.60;97.10;;;;;;5027050;28;20022;-75
2021/11/17 08:57:59;;;;;;;38.33;13.13;;;8.70;97.20;;;;;;4994206;28;20114;-76
2021/11/17 09:00:26;;;;;;;43.40;13.35;;;8.70;97.20;;;;;;4994970;28;20054;-75
2021/11/17 09:02:54;;;;;;;39.30;14.85;;;8.70;97.20;;;;;;4994918;28;20038;-75
2021/11/17 09:05:24;;;;;;;34.85;12.52;;;8.70;97.20;;;;;;4993611;28;20026;-76
2021/11/17 09:07:50;;;;;;;35.60;12.38;;;8.80;97.20;;;;;;4995616;28;20424;-75
2021/11/17 09:10:20;;;;;;;34.47;11.27;;;8.80;97.10;;;;;;4993636;28;20065;-75
2021/11/17 09:12:46;;;;;;;29.27;12.57;;;8.80;97.10;;;;;;4995417;28;20105;-75
2021/11/17 09:15:14;;;;;;;36.78;13.05;;;8.80;97.10;;;;;;4993397;28;20061;-76
2021/11/17 09:17:40;;;;;;;35.30;12.75;;;8.90;97.20;;;;;;4993730;28;20085;-75
2021/11/17 09:20:08;;;;;;;39.92;12.77;;;8.90;97.20;;;;;;4994418;28;20102;-76
2021/11/17 09:22:33;;;;;;;32.10;11.32;;;8.90;97.20;;;;;;4993695;28;20109;-76
2021/11/17 09:25:00;;;;;;;34.47;12.38;;;8.80;97.30;;;;;;4995053;28;20118;-76
2021/11/17 09:27:26;;;;;;;41.58;13.52;;;8.70;97.40;;;;;;4993311;28;20066;-77
2021/11/17 09:29:52;;;;;;;48.08;14.48;;;8.70;97.40;;;;;;4993799;28;20034;-76
2021/11/17 09:32:18;;;;;;;34.90;11.93;;;8.70;97.50;;;;;;4993673;28;20026;-76
2021/11/17 09:34:43;;;;;;;38.10;13.63;;;8.80;97.50;;;;;;4993596;28;20041;-76
2021/11/17 09:37:10;;;;;;;36.33;12.70;;;8.80;97.50;;;;;;4994463;28;20022;-76
2021/11/17 09:39:38;;;;;;;40.55;14.35;;;8.80;97.50;;;;;;4993429;28;20029;-76
2021/11/17 09:42:05;;;;;;;40.70;12.77;;;8.80;97.50;;;;;;4993367;28;20041;-76
2021/11/17 09:44:39;;;;;;;28.58;10.95;;;8.90;97.50;;;;;;4993035;28;20030;-75
2021/11/17 09:47:10;;;;;;;35.97;13.10;;;8.90;97.50;;;;;;4993406;28;20386;-75
2021/11/17 09:49:54;;;;;;;31.58;11.77;;;8.90;97.60;;;;;;4993472;28;20193;-76
2021/11/17 09:52:27;;;;;;;33.17;11.52;;;8.90;97.60;;;;;;4993922;28;20034;-75
2021/11/17 09:55:05;;;;;;;35.47;12.65;;;8.90;97.60;;;;;;4993109;28;20423;-75
2021/11/17 09:57:34;;;;;;;28.77;10.82;;;8.90;97.60;;;;;;4994110;28;20121;-76
2021/11/17 10:00:20;;;;;;;36.65;11.82;;;8.90;97.60;;;;;;4994383;28;20018;-75
2021/11/17 10:03:01;;;;;;;33.42;11.55;;;8.90;97.60;;;;;;4992707;28;20026;-76
2021/11/17 10:06:03;;;;;;;34.87;12.57;;;8.90;97.60;;;;;;4993759;28;20093;-76
2021/11/17 10:08:44;;;;;;;31.15;10.48;;;8.90;97.70;;;;;;4993316;28;20030;-77
2021/11/17 10:14:05;;;;;;;34.47;11.10;;;9.00;97.80;;;;;;4993854;28;20037;-76
2021/11/17 10:16:31;;;;;;;35.75;12.82;;;9.00;97.80;;;;;;5025214;28;20034;-76
2021/11/17 10:19:19;;;;;;;31.38;11.93;;;9.10;97.70;;;;;;4992748;28;20544;-76
2021/11/17 10:21:45;;;;;;;30.52;12.43;;;9.10;97.70;;;;;;4992889;28;20471;-76
2021/11/17 10:24:15;;;;;;;34.92;13.00;;;9.10;97.70;;;;;;4993487;28;20104;-77
2021/11/17 10:26:54;;;;;;;31.88;11.15;;;9.10;97.70;;;;;;4992213;28;20045;-76
2021/11/17 10:29:31;;;;;;;33.47;11.45;;;9.20;97.70;;;;;;4993442;28;20026;-76
2021/11/17 10:32:17;;;;;;;38.88;13.60;;;9.20;97.60;;;;;;4992493;28;20026;-77
2021/11/17 10:34:55;;;;;;;33.75;12.25;;;9.20;97.60;;;;;;4993978;28;20026;-76
2021/11/17 10:37:57;;;;;;;31.98;12.88;;;9.20;97.70;;;;;;4992066;28;20023;-76
2021/11/17 10:40:24;;;;;;;;;;;9.20;97.70;;;;;;4993380;28;20030;-74
2021/11/17 10:43:05;;;;;;;35.63;14.43;;;9.20;97.70;;;;;;4993376;28;19906;-76
2021/11/17 10:45:42;;;;;;;38.05;14.20;;;9.20;97.70;;;;;;4991890;28;20204;-77
2021/11/17 10:48:34;;;;;;;45.40;16.15;;;9.20;97.70;;;;;;4992210;28;20018;-74
2021/11/17 10:51:11;;;;;;;40.25;14.13;;;9.30;97.90;;;;;;4991864;28;20456;-77
2021/11/17 10:53:38;;;;;;;47.75;17.15;;;9.30;97.90;;;;;;4992154;28;20018;-76
2021/11/17 10:56:08;;;;;;;45.25;15.55;;;9.30;97.80;;;;;;4991981;28;20037;-75
2021/11/17 10:58:37;;;;;;;48.83;17.40;;;9.40;97.90;;;;;;4992930;28;20018;-75
2021/11/17 11:01:12;;;;;;;42.85;14.75;;;9.50;97.80;;;;;;4992034;28;20022;-76
2021/11/17 11:03:39;;;;;;;41.22;14.95;;;9.50;97.90;;;;;;4993159;28;20051;-76
2021/11/17 11:06:19;;;;;;;42.08;15.65;;;9.50;97.90;;;;;;4993279;28;20035;-76
2021/11/17 11:09:01;;;;;;;46.70;13.88;;;9.60;97.90;;;;;;5024833;28;20045;-78
2021/11/17 11:11:29;;;;;;;35.03;12.43;;;9.60;97.90;;;;;;4991755;28;20037;-76
2021/11/17 11:14:13;;;;;;;49.08;13.65;;;9.70;97.80;;;;;;4991882;28;20039;-76
2021/11/17 11:16:47;;;;;;;35.97;13.10;;;9.80;97.80;;;;;;4993344;28;20058;-75
2021/11/17 11:19:12;;;;;;;38.17;13.82;;;9.80;97.70;;;;;;4991660;28;20033;-75
2021/11/17 11:21:41;;;;;;;47.08;15.88;;;9.90;97.70;;;;;;5024070;28;20026;-75
2021/11/17 11:24:28;;;;;;;45.97;16.42;;;10.00;97.70;;;;;;4992810;28;20156;-75
2021/11/17 11:27:00;;;;;;;42.05;15.32;;;10.00;97.70;;;;;;4991726;28;20367;-75
2021/11/17 11:29:33;;;;;;;41.95;13.60;;;10.10;97.60;;;;;;4992838;28;20044;-75
2021/11/17 11:32:13;;;;;;;42.28;15.20;;;10.10;97.60;;;;;;4991342;28;20026;-74
2021/11/17 11:35:06;;;;;;;49.58;17.83;;;10.20;97.60;;;;;;4992759;28;20053;-75
2021/11/17 11:37:32;;;;;;;44.38;16.40;;;10.20;97.60;;;;;;4991327;28;20034;-75
2021/11/17 11:40:07;;;;;;;50.13;16.88;;;10.30;97.50;;;;;;5024310;28;20038;-74
2021/11/17 11:42:51;;;;;;;46.55;15.82;;;10.40;97.50;;;;;;4992044;28;20053;-76
2021/11/17 11:45:25;;;;;;;43.83;13.63;;;10.40;97.40;;;;;;4992762;28;20030;-76
2021/11/17 11:48:01;;;;;;;51.10;17.45;;;10.40;97.40;;;;;;5024269;28;20034;-75
2021/11/17 11:50:33;;;;;;;48.50;16.88;;;10.40;97.50;;;;;;4992436;28;20050;-76
2021/11/17 11:53:09;;;;;;;40.97;15.18;;;10.50;97.50;;;;;;5024544;28;20030;-75
2021/11/17 11:55:50;;;;;;;40.97;13.68;;;10.50;97.50;;;;;;4993260;28;20101;-77
2021/11/17 11:58:18;;;;;;;36.58;12.25;;;10.60;97.50;;;;;;5028064;28;20450;-76
2021/11/17 12:00:56;;;;;;;33.97;12.63;;;10.60;97.50;;;;;;4996600;28;20065;-76
2021/11/17 12:03:25;;;;;;;41.88;13.25;;;10.70;97.50;;;;;;4994639;28;20042;-76
2021/11/17 12:06:20;;;;;;;41.72;14.73;;;10.60;97.50;;;;;;4995336;28;20437;-77
2021/11/17 12:08:48;;;;;;;34.03;12.75;;;10.60;97.50;;;;;;4997107;28;20026;-77
2021/11/17 12:11:21;;;;;;;43.78;14.90;;;10.70;97.60;;;;;;4996762;28;20109;-76
2021/11/17 12:14:01;;;;;;;31.23;12.10;;;10.80;97.50;;;;;;4996587;28;20026;-76
2021/11/17 12:16:41;;;;;;;34.28;14.15;;;10.90;97.50;;;;;;5027501;28;20061;-76
2021/11/17 12:19:10;;;;;;;39.33;14.07;;;10.90;97.50;;;;;;5027777;28;20030;-76
2021/11/17 12:21:39;;;;;;;34.42;13.45;;;10.90;97.50;;;;;;4994505;28;20033;-76
2021/11/17 12:24:13;;;;;;;39.90;15.90;;;11.00;97.50;;;;;;4996157;28;20034;-76
2021/11/17 12:26:45;;;;;;;30.45;12.45;;;11.00;97.50;;;;;;4995740;28;20030;-75
2021/11/17 12:29:20;;;;;;;40.97;14.88;;;11.00;97.50;;;;;;4994841;28;20029;-75
2021/11/17 12:31:52;;;;;;;35.42;12.93;;;11.10;97.50;;;;;;4996078;28;20089;-76
2021/11/17 12:34:29;;;;;;;38.42;13.70;;;11.10;97.50;;;;;;5027514;28;20501;-75
2021/11/17 12:37:00;;;;;;;38.75;14.30;;;11.10;97.50;;;;;;4994790;28;20023;-76
2021/11/17 12:39:36;;;;;;;30.70;12.02;;;11.20;97.60;;;;;;4995579;28;20057;-76
2021/11/17 12:42:06;;;;;;;30.65;12.20;;;11.20;97.60;;;;;;4995950;28;20080;-75
2021/11/17 12:44:45;;;;;;;34.35;12.02;;;11.30;97.60;;;;;;4993724;28;20022;-76
2021/11/17 12:47:19;;;;;;;32.50;13.10;;;11.30;97.50;;;;;;4993876;28;20121;-76
2021/11/17 12:49:53;;;;;;;44.10;15.65;;;11.50;97.50;;;;;;4995617;28;20022;-76
2021/11/17 12:52:52;;;;;;;34.45;12.40;;;11.50;97.40;;;;;;5026853;28;20097;-77
2021/11/17 12:55:35;;;;;;;30.75;10.75;;;11.50;97.30;;;;;;4994463;28;20034;-77
2021/11/17 12:58:13;;;;;;;28.23;10.63;;;11.50;97.40;;;;;;4993797;28;20026;-77
2021/11/17 13:01:09;;;;;;;34.35;13.00;;;11.50;97.50;;;;;;4995364;28;20101;-77
2021/11/17 13:03:38;;;;;;;33.60;13.65;;;11.40;97.50;;;;;;4993079;28;20497;-77
2021/11/17 13:06:08;;;;;;;35.28;13.55;;;11.40;97.60;;;;;;4995482;28;20038;-76
2021/11/17 13:08:36;;;;;;;32.13;12.35;;;11.30;97.70;;;;;;4992669;28;20018;-77
2021/11/17 13:11:11;;;;;;;30.20;11.55;;;11.30;97.80;;;;;;4995513;28;20073;-77
2021/11/17 13:13:45;;;;;;;30.15;12.13;;;11.20;97.90;;;;;;4995204;28;20046;-78
2021/11/17 13:16:17;;;;;;;32.65;13.63;;;11.20;98.00;;;;;;4994856;28;20478;-77
2021/11/17 13:18:46;;;;;;;34.45;13.27;;;11.20;98.00;;;;;;4994932;28;20027;-76
2021/11/17 13:21:17;;;;;;;35.40;13.27;;;11.20;98.00;;;;;;5026835;28;20022;-76
2021/11/17 13:24:01;;;;;;;31.60;12.63;;;11.30;98.00;;;;;;5026255;28;20026;-75
2021/11/17 13:26:33;;;;;;;31.42;13.07;;;11.30;98.00;;;;;;5026222;28;20030;-76
2021/11/17 13:29:26;;;;;;;34.13;13.52;;;11.20;98.00;;;;;;4994857;28;20359;-76
2021/11/17 13:32:03;;;;;;;30.85;11.52;;;11.20;98.10;;;;;;4994885;28;20030;-76
2021/11/17 13:34:38;;;;;;;27.60;10.73;;;11.20;98.10;;;;;;4994253;28;20490;-76
2021/11/17 13:37:38;;;;;;;32.75;11.75;;;11.30;98.20;;;;;;4993242;28;20030;-76
2021/11/17 13:40:07;;;;;;;29.77;12.05;;;11.40;98.10;;;;;;4994678;28;20101;-76
2021/11/17 13:42:33;;;;;;;30.80;11.60;;;11.50;98.00;;;;;;4992983;28;20030;-77
2021/11/17 13:45:00;;;;;;;25.13;10.95;;;11.60;97.80;;;;;;4994433;28;20104;-75
2021/11/17 13:47:29;;;;;;;28.55;10.27;;;11.70;97.70;;;;;;4992529;28;20022;-75
2021/11/17 13:49:57;;;;;;;31.88;12.95;;;11.80;97.60;;;;;;4994795;28;20026;-75
2021/11/17 13:52:27;;;;;;;30.13;10.65;;;11.90;97.50;;;;;;4995342;28;20023;-76
2021/11/17 13:54:53;;;;;;;28.45;10.73;;;12.00;97.40;;;;;;4994346;28;20045;-75
2021/11/17 13:57:21;;;;;;;25.08;9.57;;;12.10;97.40;;;;;;4993310;28;20019;-75
2021/11/17 13:59:46;;;;;;;25.67;10.02;;;12.20;97.30;;;;;;4993775;28;20026;-75
2021/11/17 14:02:14;;;;;;;26.23;9.88;;;12.30;97.10;;;;;;4993697;28;20041;-75
2021/11/17 14:04:41;;;;;;;25.85;9.80;;;12.40;97.00;;;;;;4991825;28;20050;-76
2021/11/17 14:07:07;;;;;;;22.15;8.60;;;12.50;97.00;;;;;;4994023;28;20033;-75
2021/11/17 14:09:33;;;;;;;16.98;6.90;;;12.50;96.90;;;;;;4993161;28;20022;-76
2021/11/17 14:12:00;;;;;;;19.45;6.05;;;12.50;96.90;;;;;;4993743;28;20323;-77
2021/11/17 14:14:27;;;;;;;16.27;5.10;;;12.50;96.90;;;;;;4992231;28;20029;-77
2021/11/17 14:16:54;;;;;;;10.65;3.40;;;12.50;96.80;;;;;;4992318;28;20073;-75
2021/11/17 14:19:20;;;;;;;13.15;3.60;;;12.40;96.70;;;;;;4992164;28;20072;-75
2021/11/17 14:21:46;;;;;;;8.65;2.13;;;12.40;96.70;;;;;;4993240;28;20026;-75
2021/11/17 14:24:13;;;;;;;8.18;2.05;;;12.30;96.50;;;;;;4992561;28;20048;-76
2021/11/17 14:26:42;;;;;;;5.97;1.98;;;12.20;96.50;;;;;;4991827;28;20041;-75
2021/11/17 14:29:12;;;;;;;7.03;1.70;;;12.10;96.50;;;;;;4994009;28;20058;-76
2021/11/17 14:31:48;;;;;;;6.03;1.58;;;12.10;96.40;;;;;;4993517;28;20019;-74
2021/11/17 14:34:14;;;;;;;7.53;1.80;;;12.20;96.40;;;;;;4992517;28;20025;-76
2021/11/17 14:36:50;;;;;;;10.90;1.92;;;12.20;96.30;;;;;;4992163;28;20018;-73
2021/11/17 14:39:20;;;;;;;5.70;1.60;;;12.20;96.20;;;;;;4993753;28;20019;-75
2021/11/17 14:41:47;;;;;;;7.57;1.88;;;12.20;96.10;;;;;;4993537;28;20048;-76
2021/11/17 14:44:13;;;;;;;9.95;2.10;;;12.20;96.10;;;;;;4992306;28;20026;-74
2021/11/17 14:46:39;;;;;;;8.25;1.88;;;12.20;96.10;;;;;;4991798;28;20112;-76
2021/11/17 14:49:05;;;;;;;5.65;1.48;;;12.20;96.40;;;;;;4993793;28;20370;-76
2021/11/17 14:51:31;;;;;;;6.97;1.65;;;12.10;96.00;;;;;;4993189;28;20463;-75
2021/11/17 14:53:58;;;;;;;8.00;2.00;;;12.00;96.10;;;;;;4993108;28;20463;-75
2021/11/17 14:56:24;;;;;;;6.15;1.40;;;12.00;96.10;;;;;;4992220;28;20185;-73
2021/11/17 14:58:50;;;;;;;6.10;1.90;;;11.90;96.20;;;;;;4992923;28;20034;-74
2021/11/17 15:01:24;;;;;;;4.00;1.00;;;11.80;96.40;;;;;;4993408;28;20045;-76
2021/11/17 15:03:51;;;;;;;6.32;1.88;;;11.70;96.40;;;;;;4991430;28;20057;-74
2021/11/17 15:06:18;;;;;;;10.05;1.85;;;11.60;96.50;;;;;;4993392;28;20034;-73
2021/11/17 15:08:44;;;;;;;7.00;1.73;;;11.50;96.40;;;;;;4992506;28;20038;-73
2021/11/17 15:11:10;;;;;;;6.28;1.52;;;11.40;96.40;;;;;;4993159;28;20026;-73
2021/11/17 15:13:36;;;;;;;7.18;1.73;;;11.30;96.50;;;;;;4992540;28;20379;-73
2021/11/17 15:16:03;;;;;;;8.13;1.58;;;11.20;96.50;;;;;;4993139;28;20073;-73
2021/11/17 15:18:29;;;;;;;5.68;1.55;;;11.20;96.60;;;;;;4991853;28;20086;-74
2021/11/17 15:20:55;;;;;;;5.82;1.35;;;11.10;96.60;;;;;;4992576;28;20387;-74
2021/11/17 15:23:22;;;;;;;5.53;1.60;;;11.00;96.70;;;;;;4992753;28;20105;-72
2021/11/17 15:25:50;;;;;;;3.63;1.30;;;10.90;96.70;;;;;;4990762;28;20027;-73
2021/11/17 15:28:27;;;;;;;7.07;1.45;;;10.90;96.80;;;;;;4992857;28;20526;-72
2021/11/17 15:30:57;;;;;;;5.80;1.90;;;10.80;96.90;;;;;;4990442;28;20106;-73
2021/11/17 15:33:23;;;;;;;4.68;2.13;;;10.80;96.80;;;;;;4992813;28;20113;-75
2021/11/17 15:35:49;;;;;;;6.40;1.80;;;10.80;96.80;;;;;;4992570;28;20026;-75
2021/11/17 15:38:17;;;;;;;5.80;1.45;;;10.70;96.90;;;;;;4993303;28;20085;-74
2021/11/17 15:40:50;;;;;;;6.72;1.63;;;10.60;96.90;;;;;;4991884;28;20038;-74
2021/11/17 15:43:17;;;;;;;5.90;2.10;;;10.60;96.90;;;;;;4992981;28;20027;-74